Sensho — JG5609 — position and weather

sailwx.info

Track history (hours):
 
Tides and Currents Weather Stations Pressure Air Temp Water Temp Dewpoint Dewpoint Depression Visibility Wind Speed Wind Dir Waves Ship Positions

Sensho

Last reported at 2018-Jun-20 12:05 UTC. Time now 2018-Jun-21 12:01 UTC.
Position N 34°25' E 134°18'.

Length 81 m; draft 4 m.

Type: Cargo ship. MMSI: 431100886.

Date/timePositionNaut miles runAvg speedWind from/ knotsBaromVisibWave heightAir tempDewpointWater temp
2018-Jun-20 12:05N 34°25' E 134°18'214.2
2018-Jun-20 11:59N 34°25' E 134°20'713.9
2018-Jun-20 11:30N 34°27' E 134°28'714.3
2018-Jun-20 11:00N 34°30' E 134°36'713.8
2018-Jun-20 10:30N 34°32' E 134°43'1212.9
2018-Jun-20 09:34N 34°37' E 134°57'212.6
2018-Jun-20 09:25N 34°38' E 134°59'512.0
2018-Jun-20 08:59N 34°36' E 135°05'613.3
2018-Jun-20 08:30N 34°36' E 135°13'713.9
2018-Jun-20 08:00N 34°37' E 135°22'5 9.7
2018-Jun-20 07:31N 34°35' E 135°27'0 0.0
2018-Jun-20 00:01N 34°34' E 135°27'0 0.1
2018-Jun-19 23:55N 34°34' E 135°27'2 5.1
2018-Jun-19 23:30N 34°36' E 135°25'612.0
2018-Jun-19 23:00N 34°36' E 135°18'713.9
2018-Jun-19 22:30N 34°35' E 135°09'815.3
2018-Jun-19 22:00N 34°37' E 135°01'815.4
2018-Jun-19 21:31N 34°34' E 134°52'714.6
2018-Jun-19 21:00N 34°31' E 134°44'814.1
2018-Jun-19 20:28N 34°29' E 134°35'714.0
2018-Jun-19 19:58N 34°26' E 134°27'7 0.2
2018-Jun-18 08:05N 34°25' E 134°19'113.3
2018-Jun-18 07:59N 34°25' E 134°21'613.5
2018-Jun-18 07:31N 34°28' E 134°28'713.6
2018-Jun-18 07:00N 34°30' E 134°36'713.8
2018-Jun-18 06:31N 34°32' E 134°44'1113.6
2018-Jun-18 05:40N 34°37' E 134°57'214.0
2018-Jun-18 05:30N 34°37' E 134°59'713.1
2018-Jun-18 05:00N 34°36' E 135°07'814.7
2018-Jun-18 04:29N 34°36' E 135°16'714.1
2018-Jun-18 04:00N 34°36' E 135°24'3 0.2
2018-Jun-17 12:30N 34°34' E 135°27'0 0.0
2018-Jun-17 07:03N 34°34' E 135°27'0 0.0
2018-Jun-17 07:00N 34°34' E 135°27'0 0.0
2018-Jun-16 14:00N 34°34' E 135°27'0 0.0
2018-Jun-16 13:12N 34°34' E 135°27'0 0.0
2018-Jun-16 07:30N 34°34' E 135°27'0 0.0
2018-Jun-16 06:54N 34°34' E 135°27'0 0.0
2018-Jun-16 06:12N 34°34' E 135°27'0 0.0
2018-Jun-16 06:00N 34°34' E 135°27'0 0.0
2018-Jun-16 05:18N 34°34' E 135°27'0 0.0
2018-Jun-16 05:00N 34°34' E 135°27'0 0.0
2018-Jun-16 02:48N 34°34' E 135°27'0 0.0
2018-Jun-16 02:24N 34°34' E 135°27'0 0.0
2018-Jun-16 00:51N 34°34' E 135°27'410.6
2018-Jun-16 00:30N 34°36' E 135°23'612.2
2018-Jun-16 00:00N 34°36' E 135°16'713.4
2018-Jun-15 23:30N 34°35' E 135°08'612.9
2018-Jun-15 23:01N 34°37' E 135°00'612.6
2018-Jun-15 22:30N 34°35' E 134°53'613.1
2018-Jun-15 22:00N 34°32' E 134°46'713.6
2018-Jun-15 21:28N 34°30' E 134°38'713.7
2018-Jun-15 20:58N 34°27' E 134°30'11 0.3
2018-Jun-14 12:27N 34°25' E 134°17'714.6
2018-Jun-14 11:59N 34°27' E 134°25'714.7
2018-Jun-14 11:31N 34°29' E 134°33'815.2
2018-Jun-14 11:01N 34°32' E 134°42'1217.0
2018-Jun-14 10:19N 34°36' E 134°55'516.7
2018-Jun-14 10:00N 34°37' E 135°01'714.6
2018-Jun-14 09:30N 34°36' E 135°10'713.7
2018-Jun-14 08:59N 34°36' E 135°19'612.7
2018-Jun-14 08:29N 34°35' E 135°26'1 1.9
2018-Jun-14 07:59N 34°34' E 135°27'0 0.0
2018-Jun-14 01:15N 34°35' E 135°27'311.6
2018-Jun-14 01:00N 34°36' E 135°24'713.6
2018-Jun-14 00:30N 34°36' E 135°16'713.4
2018-Jun-14 00:01N 34°35' E 135°08'811.7
2018-Jun-13 23:21N 34°37' E 134°59'511.9
2018-Jun-13 22:56N 34°35' E 134°53'512.0
2018-Jun-13 22:29N 34°33' E 134°47'713.0
2018-Jun-13 21:55N 34°30' E 134°39'613.6
2018-Jun-13 21:31N 34°28' E 134°33'11 0.3
2018-Jun-12 11:44N 34°25' E 134°20'314.8
2018-Jun-12 11:30N 34°26' E 134°24'714.8
2018-Jun-12 11:00N 34°29' E 134°32'715.0
2018-Jun-12 10:30N 34°32' E 134°41'816.0
2018-Jun-12 10:00N 34°35' E 134°50'917.4
2018-Jun-12 09:28N 34°37' E 135°01'714.9
2018-Jun-12 09:00N 34°36' E 135°09'713.8
2018-Jun-12 08:31N 34°36' E 135°17'713.1
2018-Jun-12 08:00N 34°36' E 135°25'2 4.1
2018-Jun-12 07:30N 34°34' E 135°27'0 0.0
2018-Jun-12 06:55N 34°34' E 135°27'0 0.0
2018-Jun-12 00:16N 34°35' E 135°27'3 9.6
2018-Jun-12 00:00N 34°36' E 135°24'713.1
2018-Jun-11 23:29N 34°35' E 135°16'713.6
2018-Jun-11 23:00N 34°34' E 135°08'612.0
2018-Jun-11 22:28N 34°37' E 135°01'511.6
2018-Jun-11 22:00N 34°35' E 134°55'612.0
2018-Jun-11 21:30N 34°33' E 134°48'713.0
2018-Jun-11 21:00N 34°31' E 134°41'713.7
2018-Jun-11 20:30N 34°28' E 134°33'713.6
2018-Jun-11 20:00N 34°26' E 134°26'  
Track history (hours):
 
Tides and Currents Weather Stations Pressure Air Temp Water Temp Dewpoint Dewpoint Depression Visibility Wind Speed Wind Dir Waves Ship Positions

Sensho

Last reported at 2018-Jun-20 12:05 UTC. Time now 2018-Jun-21 12:01 UTC.
Position N 34°25' E 134°18'.

Length 81 m; draft 4 m.

Type: Cargo ship. MMSI: 431100886.

Date/timePositionNaut miles runAvg speedWind from/ knotsBaromVisibWave heightAir tempDewpointWater temp
2018-Jun-20 12:05N 34°25' E 134°18'214.2
2018-Jun-20 11:59N 34°25' E 134°20'713.9
2018-Jun-20 11:30N 34°27' E 134°28'714.3
2018-Jun-20 11:00N 34°30' E 134°36'713.8
2018-Jun-20 10:30N 34°32' E 134°43'1212.9
2018-Jun-20 09:34N 34°37' E 134°57'212.6
2018-Jun-20 09:25N 34°38' E 134°59'512.0
2018-Jun-20 08:59N 34°36' E 135°05'613.3
2018-Jun-20 08:30N 34°36' E 135°13'713.9
2018-Jun-20 08:00N 34°37' E 135°22'5 9.7
2018-Jun-20 07:31N 34°35' E 135°27'0 0.0
2018-Jun-20 00:01N 34°34' E 135°27'0 0.1
2018-Jun-19 23:55N 34°34' E 135°27'2 5.1
2018-Jun-19 23:30N 34°36' E 135°25'612.0
2018-Jun-19 23:00N 34°36' E 135°18'713.9
2018-Jun-19 22:30N 34°35' E 135°09'815.3
2018-Jun-19 22:00N 34°37' E 135°01'815.4
2018-Jun-19 21:31N 34°34' E 134°52'714.6
2018-Jun-19 21:00N 34°31' E 134°44'814.1
2018-Jun-19 20:28N 34°29' E 134°35'714.0
2018-Jun-19 19:58N 34°26' E 134°27'7 0.2
2018-Jun-18 08:05N 34°25' E 134°19'113.3
2018-Jun-18 07:59N 34°25' E 134°21'613.5
2018-Jun-18 07:31N 34°28' E 134°28'713.6
2018-Jun-18 07:00N 34°30' E 134°36'713.8
2018-Jun-18 06:31N 34°32' E 134°44'1113.6
2018-Jun-18 05:40N 34°37' E 134°57'214.0
2018-Jun-18 05:30N 34°37' E 134°59'713.1
2018-Jun-18 05:00N 34°36' E 135°07'814.7
2018-Jun-18 04:29N 34°36' E 135°16'714.1
2018-Jun-18 04:00N 34°36' E 135°24'3 0.2
2018-Jun-17 12:30N 34°34' E 135°27'0 0.0
2018-Jun-17 07:03N 34°34' E 135°27'0 0.0
2018-Jun-17 07:00N 34°34' E 135°27'0 0.0
2018-Jun-16 14:00N 34°34' E 135°27'0 0.0
2018-Jun-16 13:12N 34°34' E 135°27'0 0.0
2018-Jun-16 07:30N 34°34' E 135°27'0 0.0
2018-Jun-16 06:54N 34°34' E 135°27'0 0.0
2018-Jun-16 06:12N 34°34' E 135°27'0 0.0
2018-Jun-16 06:00N 34°34' E 135°27'0 0.0
2018-Jun-16 05:18N 34°34' E 135°27'0 0.0
2018-Jun-16 05:00N 34°34' E 135°27'0 0.0
2018-Jun-16 02:48N 34°34' E 135°27'0 0.0
2018-Jun-16 02:24N 34°34' E 135°27'0 0.0
2018-Jun-16 00:51N 34°34' E 135°27'410.6
2018-Jun-16 00:30N 34°36' E 135°23'612.2
2018-Jun-16 00:00N 34°36' E 135°16'713.4
2018-Jun-15 23:30N 34°35' E 135°08'612.9
2018-Jun-15 23:01N 34°37' E 135°00'612.6
2018-Jun-15 22:30N 34°35' E 134°53'613.1
2018-Jun-15 22:00N 34°32' E 134°46'713.6
2018-Jun-15 21:28N 34°30' E 134°38'713.7
2018-Jun-15 20:58N 34°27' E 134°30'11 0.3
2018-Jun-14 12:27N 34°25' E 134°17'714.6
2018-Jun-14 11:59N 34°27' E 134°25'714.7
2018-Jun-14 11:31N 34°29' E 134°33'815.2
2018-Jun-14 11:01N 34°32' E 134°42'1217.0
2018-Jun-14 10:19N 34°36' E 134°55'516.7
2018-Jun-14 10:00N 34°37' E 135°01'714.6
2018-Jun-14 09:30N 34°36' E 135°10'713.7
2018-Jun-14 08:59N 34°36' E 135°19'612.7
2018-Jun-14 08:29N 34°35' E 135°26'1 1.9
2018-Jun-14 07:59N 34°34' E 135°27'0 0.0
2018-Jun-14 01:15N 34°35' E 135°27'311.6
2018-Jun-14 01:00N 34°36' E 135°24'713.6
2018-Jun-14 00:30N 34°36' E 135°16'713.4
2018-Jun-14 00:01N 34°35' E 135°08'811.7
2018-Jun-13 23:21N 34°37' E 134°59'511.9
2018-Jun-13 22:56N 34°35' E 134°53'512.0
2018-Jun-13 22:29N 34°33' E 134°47'713.0
2018-Jun-13 21:55N 34°30' E 134°39'613.6
2018-Jun-13 21:31N 34°28' E 134°33'11 0.3
2018-Jun-12 11:44N 34°25' E 134°20'314.8
2018-Jun-12 11:30N 34°26' E 134°24'714.8
2018-Jun-12 11:00N 34°29' E 134°32'715.0
2018-Jun-12 10:30N 34°32' E 134°41'816.0
2018-Jun-12 10:00N 34°35' E 134°50'917.4
2018-Jun-12 09:28N 34°37' E 135°01'714.9
2018-Jun-12 09:00N 34°36' E 135°09'713.8
2018-Jun-12 08:31N 34°36' E 135°17'713.1
2018-Jun-12 08:00N 34°36' E 135°25'2 4.1
2018-Jun-12 07:30N 34°34' E 135°27'0 0.0
2018-Jun-12 06:55N 34°34' E 135°27'0 0.0
2018-Jun-12 00:16N 34°35' E 135°27'3 9.6
2018-Jun-12 00:00N 34°36' E 135°24'713.1
2018-Jun-11 23:29N 34°35' E 135°16'713.6
2018-Jun-11 23:00N 34°34' E 135°08'612.0
2018-Jun-11 22:28N 34°37' E 135°01'511.6
2018-Jun-11 22:00N 34°35' E 134°55'612.0
2018-Jun-11 21:30N 34°33' E 134°48'713.0
2018-Jun-11 21:00N 34°31' E 134°41'713.7
2018-Jun-11 20:30N 34°28' E 134°33'713.6
2018-Jun-11 20:00N 34°26' E 134°26'  

Dump ship's entire track history